Time;durP1;ratioP1;P1;durP2;ratioP2;P2;SDS_P1;SDS_P2;PMS_P1;PMS_P2;Temp;Humidity;BMP_temperature;BMP_pressure;BME280_temperature;BME280_humidity;BME280_pressure;Samples;Min_cycle;Max_cycle;Signal;HPM_P1;HPM_P2
2021/07/13 00:05:12;;;;;;;;;;;;;;;18.57;66.38;99186.34;531345;1090;102847;-69
2021/07/13 00:15:19;;;;;;;;;;;;;;;18.55;66.38;99206.13;530757;1090;102321;-70
2021/07/13 00:25:25;;;;;;;;;;;;;;;18.46;66.28;99234.48;531347;1088;102325;-68
2021/07/13 00:35:29;;;;;;;;;;;;;;;18.30;66.47;99190.89;531374;1089;102907;-70
2021/07/13 00:45:34;;;;;;;;;;;;;;;18.18;66.61;99185.03;530686;1090;102730;-70
2021/07/13 00:55:39;;;;;;;;;;;;;;;18.10;66.92;99224.83;531372;1090;102506;-71
2021/07/13 01:05:45;;;;;;;;;;;;;;;18.25;66.68;99219.77;525615;1090;102242;-68
2021/07/13 01:15:51;;;;;;;;;;;;;;;18.48;65.98;99228.02;525928;1089;103791;-69
2021/07/13 01:26:05;;;;;;;;;;;;;;;18.49;65.56;99219.05;531398;1090;103669;-68
2021/07/13 01:36:13;;;;;;;;;;;;;;;18.43;65.26;99197.59;530705;1090;101900;-68
2021/07/13 01:46:18;;;;;;;;;;;;;;;18.32;65.65;99193.40;531377;1092;102305;-68
2021/07/13 01:56:23;;;;;;;;;;;;;;;18.19;66.16;99192.01;531402;1090;103580;-69
2021/07/13 02:06:28;;;;;;;;;;;;;;;18.22;66.50;99206.78;530739;1090;102541;-67
2021/07/13 02:16:33;;;;;;;;;;;;;;;18.22;66.44;99203.30;531406;1089;101808;-68
2021/07/13 02:26:42;;;;;;;;;;;;;;;18.15;67.40;99209.23;531309;1090;102859;-67
2021/07/13 02:36:49;;;;;;;;;;;;;;;18.01;67.49;99201.81;530683;1090;103233;-68
2021/07/13 02:46:54;;;;;;;;;;;;;;;17.87;68.02;99197.90;531332;1090;103227;-68
2021/07/13 02:57:01;;;;;;;;;;;;;;;17.94;68.46;99212.23;527388;1089;103028;-68
2021/07/13 03:07:06;;;;;;;;;;;;;;;18.22;68.28;99204.13;531347;1090;102622;-69
2021/07/13 03:17:12;;;;;;;;;;;;;;;18.44;67.91;99208.08;531370;1090;102768;-68
2021/07/13 03:27:17;;;;;;;;;;;;;;;18.48;67.67;99204.09;530753;1090;103115;-68
2021/07/13 03:37:22;;;;;;;;;;;;;;;18.49;67.49;99208.42;531343;1090;102734;-68
2021/07/13 03:47:27;;;;;;;;;;;;;;;18.63;67.41;99193.70;531308;1090;102856;-68
2021/07/13 03:57:32;;;;;;;;;;;;;;;18.75;66.96;99196.06;524584;1089;103833;-67
2021/07/13 04:07:37;;;;;;;;;;;;;;;19.27;66.12;99183.55;531351;1090;103407;-68
2021/07/13 04:17:43;;;;;;;;;;;;;;;22.95;63.80;99192.47;531315;1090;103649;-68
2021/07/13 04:27:47;;;;;;;;;;;;;;;28.25;55.17;99175.05;530689;1090;103899;-67
2021/07/13 04:37:52;;;;;;;;;;;;;;;32.77;47.64;99179.50;531368;1090;102613;-68
2021/07/13 04:47:57;;;;;;;;;;;;;;;35.86;41.41;99168.63;530655;1088;104002;-68
2021/07/13 04:58:02;;;;;;;;;;;;;;;37.92;36.39;99145.66;531339;1090;103305;-68
2021/07/13 05:08:07;;;;;;;;;;;;;;;41.39;32.54;99152.27;531291;1090;102431;-69
2021/07/13 05:18:12;;;;;;;;;;;;;;;42.14;29.57;99135.86;530693;1088;103173;-68
2021/07/13 05:28:17;;;;;;;;;;;;;;;42.63;27.71;99121.14;531305;1089;104025;-68
2021/07/13 05:38:23;;;;;;;;;;;;;;;44.35;25.49;99105.72;531259;1090;102444;-68
2021/07/13 05:48:27;;;;;;;;;;;;;;;46.52;23.58;99138.20;530674;1090;101915;-69
2021/07/13 05:58:33;;;;;;;;;;;;;;;46.13;22.72;99139.45;531380;1088;101573;-69
2021/07/13 06:08:38;;;;;;;;;;;;;;;47.38;21.45;99136.98;531345;1090;102589;-69
2021/07/13 06:18:43;;;;;;;;;;;;;;;49.73;19.45;99140.17;530645;1089;102937;-69
2021/07/13 06:28:48;;;;;;;;;;;;;;;51.39;17.61;99132.18;531307;1090;101812;-69
2021/07/13 06:38:53;;;;;;;;;;;;;;;52.94;16.29;99131.33;530702;1090;102380;-69
2021/07/13 06:48:57;;;;;;;;;;;;;;;52.69;15.77;99125.66;531373;1090;102651;-70
2021/07/13 06:59:02;;;;;;;;;;;;;;;53.31;14.94;99120.93;531280;1089;101442;-71
2021/07/13 07:09:07;;;;;;;;;;;;;;;54.38;14.76;99109.05;530703;1090;103316;-70
2021/07/13 07:19:12;;;;;;;;;;;;;;;53.23;14.75;99096.92;525091;1088;102409;-70
2021/07/13 07:29:17;;;;;;;;;;;;;;;53.87;13.99;99100.04;531154;1090;102781;-73
2021/07/13 07:39:22;;;;;;;;;;;;;;;55.27;13.55;99108.05;530708;1090;103365;-72
2021/07/13 07:49:27;;;;;;;;;;;;;;;53.81;13.90;99107.27;531318;1088;102341;-71
2021/07/13 07:59:33;;;;;;;;;;;;;;;47.30;15.79;99104.63;529722;1089;102530;-71
2021/07/13 08:09:38;;;;;;;;;;;;;;;38.43;22.41;99097.61;530674;1090;102492;-71
2021/07/13 08:19:43;;;;;;;;;;;;;;;35.14;26.56;99080.28;531156;1092;102029;-71
2021/07/13 08:29:48;;;;;;;;;;;;;;;33.73;29.23;99081.02;531271;1090;101761;-70
2021/07/13 08:39:53;;;;;;;;;;;;;;;33.54;30.25;99080.64;531345;1089;103373;-72
2021/07/13 08:49:58;;;;;;;;;;;;;;;32.59;32.11;99079.33;531251;1090;103162;-72
2021/07/13 09:00:03;;;;;;;;;;;;;;;31.65;34.19;99085.50;530674;1090;102744;-72
2021/07/13 09:10:08;;;;;;;;;;;;;;;31.58;34.84;99078.38;531251;1090;101875;-71
2021/07/13 09:20:16;;;;;;;;;;;;;;;31.06;36.11;99071.34;531331;1091;102623;-71
2021/07/13 09:30:31;;;;;;;;;;;;;;;30.96;35.69;99074.69;521569;1090;10001049;-71
2021/07/13 09:40:37;;;;;;;;;;;;;;;29.95;37.05;99066.03;531025;1090;103080;-72
2021/07/13 09:50:43;;;;;;;;;;;;;;;29.47;38.10;99060.70;531298;1088;104688;-71
2021/07/13 10:00:49;;;;;;;;;;;;;;;29.58;38.57;99048.20;530686;1088;102708;-73
2021/07/13 10:10:55;;;;;;;;;;;;;;;30.20;38.54;99052.22;531325;1089;102224;-73
2021/07/13 10:21:00;;;;;;;;;;;;;;;30.28;38.11;99056.42;530698;1089;102413;-72
2021/07/13 10:31:05;;;;;;;;;;;;;;;29.86;38.66;99052.05;531268;1088;102371;-73
2021/07/13 10:41:11;;;;;;;;;;;;;;;29.80;38.41;99046.78;531297;1089;102888;-73
2021/07/13 10:51:16;;;;;;;;;;;;;;;30.14;38.65;99042.34;530673;1088;102581;-73
2021/07/13 11:01:24;;;;;;;;;;;;;;;30.22;38.84;99029.50;531300;1090;101875;-73
2021/07/13 11:11:38;;;;;;;;;;;;;;;30.02;39.35;99033.41;531321;1090;102870;-72
2021/07/13 11:21:46;;;;;;;;;;;;;;;29.44;39.94;99020.62;530585;1088;102282;-74
2021/07/13 11:31:53;;;;;;;;;;;;;;;29.72;40.08;99020.89;530609;1088;102458;-71
2021/07/13 11:42:02;;;;;;;;;;;;;;;29.90;39.91;99011.81;530586;1090;103037;-72
2021/07/13 11:52:07;;;;;;;;;;;;;;;29.80;39.44;99017.83;531235;1088;102955;-72
2021/07/13 12:02:12;;;;;;;;;;;;;;;29.49;40.49;98984.73;527151;1090;102932;-72
2021/07/13 12:12:18;;;;;;;;;;;;;;;29.90;40.77;98979.34;530569;1091;103050;-73
2021/07/13 12:22:24;;;;;;;;;;;;;;;29.47;40.56;98971.46;531336;1089;102011;-73
2021/07/13 12:32:31;;;;;;;;;;;;;;;29.08;41.45;98965.70;531310;1092;102615;-73
2021/07/13 12:42:38;;;;;;;;;;;;;;;28.97;42.00;98953.85;530624;1089;102792;-73
2021/07/13 12:52:45;;;;;;;;;;;;;;;29.33;42.31;98953.83;531315;1089;103428;-73
2021/07/13 13:03:03;;;;;;;;;;;;;;;29.46;42.39;98950.89;530695;1090;104166;-72
2021/07/13 13:13:09;;;;;;;;;;;;;;;29.36;42.19;98927.12;531334;1092;102506;-73
2021/07/13 13:23:14;;;;;;;;;;;;;;;29.18;42.44;98913.77;531275;1090;102671;-72
2021/07/13 13:33:20;;;;;;;;;;;;;;;29.29;42.50;98914.80;530699;1089;103143;-65
2021/07/13 13:43:26;;;;;;;;;;;;;;;29.28;42.39;98922.10;531257;1090;103097;-65
2021/07/13 13:53:30;;;;;;;;;;;;;;;29.24;42.12;98920.92;531289;1090;102668;-65
2021/07/13 14:03:41;;;;;;;;;;;;;;;29.26;42.14;98923.39;530688;1089;102715;-65
2021/07/13 14:13:47;;;;;;;;;;;;;;;29.28;42.52;98921.27;531283;1090;102632;-63
2021/07/13 14:23:53;;;;;;;;;;;;;;;30.08;41.34;98910.70;530688;1090;102176;-65
2021/07/13 14:39:59;;;;;;;7.93;7.33;;;;;;;29.41;41.92;98898.56;528787;1090;64413;-70
2021/07/13 14:50:09;;;;;;;8.30;7.68;;;;;;;28.91;42.40;98884.53;530193;1092;116733;-71
2021/07/13 15:00:18;;;;;;;7.57;6.97;;;;;;;28.85;42.59;98885.50;529476;1092;117020;-64
2021/07/13 15:10:25;;;;;;;7.77;7.20;;;;;;;29.02;42.37;98886.41;530312;1093;116870;-69
2021/07/13 15:20:31;;;;;;;8.60;7.70;;;;;;;29.31;42.48;98874.83;523749;1092;116655;-66
2021/07/13 15:30:39;;;;;;;9.58;7.68;;;;;;;29.53;42.20;98879.61;513336;1092;116127;-66
2021/07/13 15:40:48;;;;;;;8.80;6.88;;;;;;;29.11;42.93;98889.58;523579;1092;115779;-66
2021/07/13 15:50:54;;;;;;;8.70;7.30;;;;;;;29.15;42.62;98873.72;511078;1093;20001735;-64
2021/07/13 16:01:01;;;;;;;6.80;6.30;;;;;;;28.97;42.26;98866.56;529704;1091;117066;-65
2021/07/13 16:11:07;;;;;;;8.27;7.67;;;;;;;28.89;42.89;98868.58;529763;1092;116043;-66
2021/07/13 16:21:14;;;;;;;10.13;6.90;;;;;;;28.79;43.05;98873.73;529176;1092;117070;-66
2021/07/13 16:31:21;;;;;;;9.30;6.78;;;;;;;28.82;42.08;98854.37;529762;1092;117414;-66
2021/07/13 16:41:27;;;;;;;7.73;7.13;;;;;;;28.83;42.71;98856.01;525315;1092;116618;-65
2021/07/13 16:51:34;;;;;;;8.80;8.05;;;;;;;28.67;42.59;98854.81;528825;1092;116656;-68
2021/07/13 17:01:40;;;;;;;8.77;7.97;;;;;;;28.49;43.52;98861.16;529722;1092;116416;-66
2021/07/13 17:11:47;;;;;;;8.13;7.43;;;;;;;28.35;44.02;98864.09;529842;1092;116701;-67
2021/07/13 17:21:54;;;;;;;7.88;7.08;;;;;;;28.24;43.91;98854.10;529715;1092;116333;-64
2021/07/13 17:32:00;;;;;;;6.63;6.10;;;;;;;28.11;43.94;98858.63;529849;1093;116249;-66
2021/07/13 17:42:07;;;;;;;7.50;6.80;;;;;;;27.89;44.74;98861.05;529064;1093;116600;-67
2021/07/13 17:52:13;;;;;;;7.48;6.75;;;;;;;27.71;45.02;98866.49;529860;1093;116531;-68
2021/07/13 18:02:20;;;;;;;8.40;7.60;;;;;;;27.50;45.57;98873.98;529818;1092;117126;-67
2021/07/13 18:12:27;;;;;;;8.68;7.98;;;;;;;27.25;46.21;98881.14;519607;1092;10001411;-67
2021/07/13 18:22:35;;;;;;;11.75;8.20;;;;;;;27.05;46.91;98885.93;529757;1092;117168;-67
2021/07/13 18:32:41;;;;;;;8.55;7.90;;;;;;;26.76;47.28;98889.09;529834;1092;116195;-65
2021/07/13 18:42:48;;;;;;;10.43;8.85;;;;;;;26.46;48.82;98897.83;529031;1092;115812;-71
2021/07/13 18:52:55;;;;;;;10.57;9.10;;;;;;;26.20;49.36;98901.55;528219;1092;116754;-72
2021/07/13 19:03:01;;;;;;;10.55;9.63;;;;;;;25.93;50.44;98915.14;523757;1092;117750;-73
2021/07/13 19:13:08;;;;;;;10.77;9.67;;;;;;;25.70;50.71;98917.34;519077;1092;117040;-72
2021/07/13 19:23:15;;;;;;;12.55;11.45;;;;;;;25.45;51.93;98922.58;527253;1092;116554;-72
2021/07/13 19:33:25;;;;;;;11.93;9.30;;;;;;;25.24;52.88;98912.94;528262;1092;116365;-73
2021/07/13 19:43:31;;;;;;;10.13;9.33;;;;;;;25.02;53.34;98916.69;529816;1092;117695;-71
2021/07/13 19:53:37;;;;;;;10.73;9.73;;;;;;;24.86;53.93;98909.09;526834;1093;117238;-71
2021/07/13 20:03:44;;;;;;;12.40;11.07;;;;;;;24.69;55.10;98906.78;523605;1091;116011;-72
2021/07/13 20:13:51;;;;;;;13.18;10.95;;;;;;;24.52;55.30;98901.01;521447;1092;117271;-71
2021/07/13 20:23:58;;;;;;;12.73;11.53;;;;;;;24.38;55.70;98897.52;529143;1093;116581;-71
2021/07/13 20:34:05;;;;;;;12.77;10.17;;;;;;;24.29;56.50;98890.70;529861;1092;116924;-72
2021/07/13 20:44:12;;;;;;;13.23;11.75;;;;;;;24.25;56.79;98892.96;529944;1092;117732;-71
2021/07/13 20:54:19;;;;;;;14.33;11.63;;;;;;;24.15;57.41;98881.81;529216;1092;117036;-72
2021/07/13 21:04:28;;;;;;;13.83;12.53;;;;;;;24.01;57.60;98883.61;529859;1093;116361;-71
2021/07/13 21:14:34;;;;;;;15.83;14.07;;;;;;;23.89;58.09;98892.28;529894;1092;117853;-71
2021/07/13 21:24:41;;;;;;;14.67;11.40;;;;;;;23.79;58.74;98881.92;528409;1092;116610;-72
2021/07/13 21:34:49;;;;;;;15.13;11.57;;;;;;;23.83;59.07;98900.27;529918;1092;116225;-72
2021/07/13 21:44:56;;;;;;;13.15;11.83;;;;;;;23.82;59.04;98920.06;529105;1092;116631;-72
2021/07/13 21:55:03;;;;;;;14.40;13.03;;;;;;;23.64;59.67;98930.31;529853;1092;115855;-72
2021/07/13 22:05:12;;;;;;;16.07;14.03;;;;;;;23.48;60.66;98927.98;530814;1092;117410;-66
2021/07/13 22:15:19;;;;;;;15.70;13.78;;;;;;;23.45;61.76;98925.72;530201;1092;117299;-64
2021/07/13 22:25:27;;;;;;;14.50;12.25;;;;;;;23.58;62.13;98927.61;521868;1092;10001203;-65
2021/07/13 22:35:33;;;;;;;18.83;14.45;;;;;;;23.77;62.45;98915.30;530940;1091;117845;-67
2021/07/13 22:45:40;;;;;;;16.83;15.10;;;;;;;23.75;62.59;98861.92;530107;1092;116624;-67
2021/07/13 22:55:47;;;;;;;15.00;13.20;;;;;;;23.77;62.13;98859.02;521951;1093;10001947;-66
2021/07/13 23:05:53;;;;;;;13.50;12.17;;;;;;;23.68;62.26;98885.19;530071;1092;117596;-65
2021/07/13 23:16:02;;;;;;;15.27;13.47;;;;;;;23.56;62.49;98887.64;530917;1092;117092;-66
2021/07/13 23:26:09;;;;;;;15.17;13.70;;;;;;;23.35;62.93;98872.49;526645;1093;116292;-66
2021/07/13 23:36:15;;;;;;;14.17;12.87;;;;;;;23.16;63.40;98861.48;529022;1092;117196;-66
2021/07/13 23:46:22;;;;;;;13.57;12.30;;;;;;;23.11;63.47;98881.84;517496;1092;116187;-66
2021/07/13 23:56:28;;;;;;;18.43;14.63;;;;;;;23.07;63.39;98881.41;530965;1093;116083;-66
